| Temp | 61.9 °F 2.5 |
|---|---|
| RH | 42 % 5 |
| Wet Bulb | 48.7 °F 0.7 |
| Dew Pt | 38.3 °F 0.8 |
| Wind Spd | 8.0 mph 0.1 |
| Wind Dir | ESE | 123 ° |
| Wind Gust | 17.7 mph 0.0 |
| WindChill | 62.0 °F 1.9 |
| Date & Time | Temp (°F) | RH (%) | Dew Pt (°F) | Wet Bulb (°F) | Wind Dir (°) | Wind Spd (mph) | Wind Gust (mph) | WindChill (°F) |
|---|---|---|---|---|---|---|---|---|
| 8/31/26 - 1545 | 61.9 | 42 | 38.3 | 48.7 | ESE | 123 | 8.0 | 17.7 | 62.0 |
| 8/31/26 - 1530 | 62.0 | 41 | 38.3 | 48.8 | ESE | 103 | 8.4 | 22.2 | 62.7 |
| 8/31/26 - 1515 | 62.8 | 40 | 38.0 | 48.9 | SE | 127 | 10.6 | 23.0 | 63.4 |
| 8/31/26 - 1500 | 63.3 | 38 | 37.3 | 48.9 | SE | 126 | 7.0 | 20.4 | 63.5 |
| 8/31/26 - 1445 | 63.2 | 37 | 36.5 | 48.5 | SSE | 168 | 8.9 | 22.9 | 63.6 |
| 8/31/26 - 1430 | 63.8 | 35 | 35.4 | 48.3 | SSE | 148 | 7.3 | 18.9 | 64.2 |
| 8/31/26 - 1415 | 64.3 | 34 | 35.2 | 48.4 | ESE | 114 | 6.3 | 17.4 | 64.1 |
| 8/31/26 - 1400 | 64.3 | 32 | 34.1 | 48.0 | E | 90 | 6.7 | 19.5 | 64.9 |
| 8/31/26 - 1345 | 64.7 | 31 | 33.7 | 48.0 | E | 100 | 4.8 | 14.8 | 65.0 |
| 8/31/26 - 1330 | 64.5 | 32 | 33.8 | 48.0 | ESE | 118 | 4.6 | 12.2 | 64.6 |
| 8/31/26 - 1315 | 64.4 | 33 | 34.4 | 48.1 | E | 97 | 4.3 | 13.4 | 64.6 |
| 8/31/26 - 1300 | 64.8 | 32 | 34.5 | 48.4 | SSE | 151 | 4.8 | 18.3 | 64.4 |
| 8/31/26 - 1245 | 63.8 | 34 | 35.0 | 48.1 | SSE | 165 | 4.7 | 13.4 | 64.4 |
| 8/31/26 - 1230 | 64.5 | 34 | 35.6 | 48.6 | ESE | 108 | 5.1 | 15.7 | 63.6 |
| 8/31/26 - 1215 | 63.4 | 34 | 34.6 | 47.8 | SSE | 161 | 7.0 | 20.6 | 64.0 |
| 8/31/26 - 1200 | 64.1 | 33 | 34.5 | 48.1 | S | 170 | 9.1 | 20.4 | 63.9 |
| 8/31/26 - 1145 | 63.7 | 33 | 34.5 | 47.9 | S | 186 | 9.0 | 19.8 | 63.7 |
| 8/31/26 - 1130 | 63.9 | 34 | 35.2 | 48.3 | SSE | 159 | 7.2 | 17.9 | 63.5 |
| 8/31/26 - 1115 | 63.6 | 34 | 34.7 | 47.9 | S | 186 | 7.3 | 16.2 | 63.8 |
| 8/31/26 - 1100 | 63.9 | 32 | 33.2 | 47.5 | S | 178 | 8.6 | 18.2 | 64.2 |
| 8/31/26 - 1045 | 64.1 | 30 | 32.0 | 47.2 | SSW | 192 | 10.2 | 17.8 | 63.8 |
| 8/31/26 - 1030 | 64.0 | 29 | 30.8 | 46.7 | S | 190 | 9.4 | 17.7 | 63.9 |
| 8/31/26 - 1015 | 63.9 | 30 | 32.2 | 47.1 | SSW | 192 | 10.0 | 16.9 | 63.9 |
| 8/31/26 - 1000 | 63.6 | 30 | 31.7 | 46.8 | SSW | 193 | 9.7 | 16.8 | 63.4 |
| Max | 64.8 | 42 | 38.3 | 48.9 | - | 10.6 | 23.0 | 65.0 |
| Avg | 63.8 | 34 | 34.7 | 48.0 | - | 7.5 | 18.0 | 63.9 |
| Min | 61.9 | 29 | 30.8 | 46.7 | - | 4.3 | 12.2 | 62.0 |
| Date | Daily Max Temp (°F) | Daily Min Temp (°F) | Wind Spd (mph) | Daily Max Wind (mph) | Daily Max RH (%) | Daily Min RH (%) | Wet Bulb (°F) | MinBV Day (V) |
|---|---|---|---|---|---|---|---|---|
| 8/30/26 | 65.6 | 46.9 | 5.0 | 22.4 | 54 | 24 | 43.6 | 14.8 |
| 8/29/26 | 62.4 | 48.2 | 4.9 | 23.6 | 89 | 32 | 46.1 | 14.8 |
| 8/28/26 | 56.4 | 49.3 | 7.2 | 22.9 | 94 | 49 | 48.2 | 14.8 |
| 8/27/26 | 71.2 | 56.1 | 5.7 | 28.5 | 51 | 22 | 46.5 | 14.7 |
| 8/26/26 | 72.1 | 57.4 | 5.4 | 30.6 | 61 | 24 | 50.3 | 14.6 |
| 8/25/26 | 70.2 | 56.2 | 7.1 | 32.7 | 48 | 33 | 48.8 | 14.6 |
| 8/24/26 | 70.5 | 57.7 | 5.7 | 25.0 | 51 | 35 | 49.7 | 14.6 |
| 8/23/26 | 72.2 | 57.2 | 5.5 | 23.2 | 55 | 30 | 49.6 | 13.2 |
| 8/22/26 | 69.9 | 57.1 | 5.9 | 24.7 | 48 | 32 | 48.7 | 13.2 |
| 8/21/26 | 73.5 | 60.2 | 6.6 | 23.7 | 46 | 26 | 49.4 | 14.6 |
| 8/20/26 | 74.3 | 58.2 | 5.0 | 24.8 | 39 | 18 | 48.4 | 14.7 |
| 8/19/26 | 75.3 | 57.7 | 5.4 | 22.4 | 47 | 26 | 49.6 | 14.6 |
| 8/18/26 | 72.8 | 55.6 | 4.7 | 20.1 | 52 | 23 | 48.8 | 14.6 |
| 8/17/26 | 74.0 | 55.9 | 6.7 | 31.4 | 51 | 29 | 48.6 | 14.7 |
| 8/16/26 | 69.9 | 54.2 | 6.4 | 28.8 | 47 | 23 | 46.6 | 14.7 |
| 8/15/26 | 64.0 | 49.6 | 9.7 | 32.3 | 67 | 28 | 45.5 | 14.8 |
| 8/14/26 | 62.8 | 49.3 | 8.4 | 27.9 | 74 | 33 | 47.6 | 14.7 |
| 8/13/26 | 63.7 | 52.9 | 6.5 | 27.5 | 75 | 49 | 49.9 | 14.8 |
| 8/12/26 | 70.3 | 57.7 | 5.6 | 26.8 | 59 | 17 | 48.6 | 13.2 |
| 8/11/26 | 75.5 | 61.3 | 6.3 | 30.0 | 37 | 18 | 48.2 | 14.5 |
| 8/10/26 | 77.5 | 63.7 | 6.7 | 27.2 | 41 | 19 | 50.3 | 13.2 |
| 8/9/26 | 80.7 | 65.2 | 3.7 | 22.2 | 37 | 12 | 50.7 | 14.5 |
| 8/8/26 | 83.2 | 66.6 | 2.8 | 17.9 | 42 | 20 | 53.4 | 14.4 |
| 8/7/26 | 84.8 | 64.3 | 3.2 | 16.7 | 39 | 17 | 52.9 | 14.5 |
| 8/6/26 | 79.7 | 63.4 | 5.0 | 20.8 | 34 | 12 | 49.9 | 14.5 |
| 8/5/26 | 77.7 | 62.2 | 7.9 | 20.8 | 41 | 11 | 48.7 | 14.6 |
| 8/4/26 | 78.8 | 60.8 | 5.5 | 19.3 | 37 | 12 | 48.9 | 14.6 |
| 8/3/26 | 77.3 | 56.6 | 4.2 | 20.9 | 35 | 13 | 47.6 | 14.6 |
| 8/2/26 | 77.1 | 58.5 | 4.6 | 20.9 | 43 | 10 | 47.0 | 14.6 |
| 8/1/26 | 78.8 | 59.7 | 4.5 | 18.7 | 33 | 11 | 47.3 | 14.5 |
| Max | 84.8 | 66.6 | 9.7 | 32.7 | 94 | 49 | 53.4 | 14.8 |
| Avg | - | - | 5.7 | - | - | - | 48.6 | - |
| Min | 56.4 | 46.9 | 2.8 | 16.7 | 33 | 10 | 43.6 | 13.2 |